createdAt,value
2023-02-18T00:00:05.724Z,12.29
2023-02-18T00:01:05.687Z,12.32
2023-02-18T00:02:05.670Z,12.28
2023-02-18T00:03:05.609Z,12.29
2023-02-18T00:04:05.578Z,12.24
2023-02-18T00:05:05.539Z,12.25
2023-02-18T00:06:05.754Z,12.25
2023-02-18T00:07:05.464Z,12.27
2023-02-18T00:08:05.428Z,12.27
2023-02-18T00:09:05.420Z,12.25
2023-02-18T00:10:05.365Z,12.39
2023-02-18T00:11:05.324Z,12.40
2023-02-18T00:12:05.287Z,12.29
2023-02-18T00:13:05.265Z,12.27
2023-02-18T00:14:05.214Z,12.27
2023-02-18T00:15:05.181Z,12.27
2023-02-18T00:16:05.272Z,12.29
2023-02-18T00:17:05.107Z,12.28
2023-02-18T00:18:05.075Z,12.29
2023-02-18T00:19:05.040Z,12.25
2023-02-18T00:20:05.006Z,12.29
2023-02-18T00:21:04.975Z,12.32
2023-02-18T00:22:04.948Z,12.29
2023-02-18T00:23:04.905Z,12.25
2023-02-18T00:24:04.866Z,12.31
2023-02-18T00:25:04.833Z,12.29
2023-02-18T00:26:04.816Z,12.24
2023-02-18T00:27:04.754Z,12.28
2023-02-18T00:28:04.720Z,12.29
2023-02-18T00:29:04.703Z,12.29
2023-02-18T00:30:04.660Z,12.31
2023-02-18T00:31:04.712Z,12.28
2023-02-18T00:32:04.616Z,12.29
2023-02-18T00:33:04.537Z,12.36
2023-02-18T00:34:04.506Z,12.24
2023-02-18T00:35:04.469Z,12.27
2023-02-18T00:36:04.432Z,12.25
2023-02-18T00:37:04.404Z,12.28
2023-02-18T00:38:04.373Z,12.24
2023-02-18T00:39:04.357Z,12.17
2023-02-18T00:40:04.298Z,12.31
2023-02-18T00:41:04.264Z,12.18
2023-02-18T00:42:04.225Z,12.24
2023-02-18T00:43:04.186Z,12.25
2023-02-18T00:44:04.149Z,12.24
2023-02-18T00:45:04.114Z,12.18
2023-02-18T00:46:04.109Z,12.18
2023-02-18T00:47:04.049Z,12.24
2023-02-18T00:48:04.010Z,12.20
2023-02-18T00:49:03.972Z,12.24
2023-02-18T00:50:03.941Z,12.24
2023-02-18T00:51:03.900Z,12.21
2023-02-18T00:52:03.875Z,12.15
2023-02-18T00:53:03.829Z,12.13
2023-02-18T00:54:03.819Z,12.18
2023-02-18T00:55:03.770Z,12.22
2023-02-18T00:56:03.732Z,12.06
2023-02-18T00:57:03.689Z,12.09
2023-02-18T00:58:03.655Z,12.02
2023-02-18T00:59:03.628Z,12.06
2023-02-18T01:00:03.578Z,12.09
2023-02-18T01:01:04.209Z,12.09
2023-02-18T01:02:03.510Z,11.94
2023-02-18T01:03:03.483Z,12.03
2023-02-18T01:04:03.440Z,12.03
2023-02-18T01:05:03.445Z,12.09
2023-02-18T01:06:03.366Z,12.09
2023-02-18T01:07:03.333Z,12.12
2023-02-18T01:08:03.308Z,12.07
2023-02-18T01:09:03.264Z,11.97
2023-02-18T01:10:03.358Z,11.97
2023-02-18T01:11:03.193Z,12.00
2023-02-18T01:12:03.158Z,12.02
2023-02-18T01:13:03.117Z,11.91
2023-02-18T01:14:03.086Z,12.00
2023-02-18T01:15:03.052Z,12.02
2023-02-18T01:16:03.077Z,11.88
2023-02-18T01:17:03.006Z,11.94
2023-02-18T01:18:02.940Z,11.97
2023-02-18T01:19:02.905Z,11.91
2023-02-18T01:20:02.882Z,11.84
2023-02-18T01:21:02.842Z,12.00
2023-02-18T01:22:02.810Z,11.95
2023-02-18T01:23:02.775Z,11.97
2023-02-18T01:24:02.728Z,11.94
2023-02-18T01:25:02.707Z,12.02
2023-02-18T01:26:02.662Z,11.97
2023-02-18T01:27:02.630Z,11.99
2023-02-18T01:28:02.594Z,11.90
2023-02-18T01:29:02.547Z,11.86
2023-02-18T01:30:02.529Z,11.81
2023-02-18T01:31:02.597Z,11.86
2023-02-18T01:32:02.660Z,11.97
2023-02-18T01:33:02.404Z,11.88
2023-02-18T01:34:02.380Z,11.88
2023-02-18T01:35:02.338Z,11.81
2023-02-18T01:36:02.302Z,11.88
2023-02-18T01:37:02.268Z,11.91
2023-02-18T01:38:02.229Z,11.90
2023-02-18T01:39:02.196Z,11.91
2023-02-18T01:40:02.166Z,11.94
2023-02-18T01:41:02.115Z,11.88
2023-02-18T01:42:02.092Z,11.95
2023-02-18T01:43:02.072Z,11.94
2023-02-18T01:44:02.019Z,11.87
2023-02-18T01:45:01.978Z,11.91
2023-02-18T01:46:01.944Z,11.84
2023-02-18T01:47:01.904Z,11.84
2023-02-18T01:48:01.865Z,11.88
2023-02-18T01:49:01.836Z,11.84
2023-02-18T01:50:01.792Z,11.86
2023-02-18T01:51:01.762Z,11.88
2023-02-18T01:52:01.725Z,11.83
2023-02-18T01:53:01.689Z,11.88
2023-02-18T01:54:01.658Z,11.84
2023-02-18T01:55:01.617Z,11.90
2023-02-18T01:56:01.582Z,11.83
2023-02-18T01:57:01.559Z,11.84
2023-02-18T01:58:01.529Z,11.87
2023-02-18T01:59:01.479Z,12.03
2023-02-18T02:00:01.431Z,12.00
2023-02-18T02:01:01.425Z,12.06
2023-02-18T02:02:01.411Z,11.95
2023-02-18T02:03:01.349Z,11.95
2023-02-18T02:04:01.297Z,11.91
2023-02-18T02:05:01.251Z,11.94
2023-02-18T02:06:01.215Z,11.99
2023-02-18T02:07:01.191Z,12.02
2023-02-18T02:08:01.156Z,11.97
2023-02-18T02:09:01.112Z,12.04
2023-02-18T02:10:01.079Z,11.90
2023-02-18T02:11:01.046Z,11.95
2023-02-18T02:12:01.007Z,11.97
2023-02-18T02:13:00.968Z,11.95
2023-02-18T02:14:00.944Z,11.87
2023-02-18T02:15:00.900Z,11.91
2023-02-18T02:16:00.886Z,11.94
2023-02-18T02:17:00.822Z,12.06
2023-02-18T02:18:00.793Z,12.02
2023-02-18T02:19:00.751Z,12.02
2023-02-18T02:20:00.732Z,11.97
2023-02-18T02:21:00.680Z,11.97
2023-02-18T02:22:00.644Z,12.03
2023-02-18T02:23:00.623Z,12.04
2023-02-18T02:24:00.583Z,12.10
2023-02-18T02:25:00.538Z,12.00
2023-02-18T02:26:00.531Z,12.07
2023-02-18T02:27:00.481Z,12.03
2023-02-18T02:28:00.437Z,12.02
2023-02-18T02:29:00.394Z,12.10
2023-02-18T02:30:00.391Z,12.09
2023-02-18T02:31:00.352Z,12.06
2023-02-18T02:32:00.336Z,12.17
2023-02-18T02:33:00.251Z,12.27
2023-02-18T02:34:00.215Z,12.20
2023-02-18T02:35:00.186Z,12.22
2023-02-18T02:36:00.160Z,12.17
2023-02-18T02:37:00.116Z,12.17
2023-02-18T02:38:00.098Z,12.13
2023-02-18T02:39:00.044Z,12.18
2023-02-18T02:40:00.005Z,12.09
2023-02-18T02:40:59.989Z,12.15
2023-02-18T02:41:59.930Z,12.17
2023-02-18T02:42:59.896Z,12.09
2023-02-18T02:43:59.860Z,12.10
2023-02-18T02:44:59.831Z,12.10
2023-02-18T02:45:59.885Z,12.18
2023-02-18T02:46:59.762Z,12.15
2023-02-18T02:47:59.728Z,12.15
2023-02-18T02:48:59.684Z,12.10
2023-02-18T02:49:59.649Z,12.13
2023-02-18T02:50:59.621Z,12.20
2023-02-18T02:51:59.607Z,12.13
2023-02-18T02:52:59.546Z,12.20
2023-02-18T02:53:59.514Z,12.22
2023-02-18T02:54:59.530Z,12.20
2023-02-18T02:55:59.434Z,12.20
2023-02-18T02:56:59.399Z,12.27
2023-02-18T02:57:59.367Z,12.21
2023-02-18T02:58:59.331Z,12.18
2023-02-18T02:59:59.294Z,12.22
2023-02-18T03:00:59.270Z,12.17
2023-02-18T03:01:59.242Z,12.21
2023-02-18T03:02:59.298Z,12.17
2023-02-18T03:03:59.150Z,12.18
2023-02-18T03:04:59.116Z,12.12
2023-02-18T03:05:59.081Z,12.20
2023-02-18T03:06:59.049Z,12.20
2023-02-18T03:07:59.006Z,12.17
2023-02-18T03:08:58.976Z,12.15
2023-02-18T03:09:58.936Z,12.21
2023-02-18T03:10:58.903Z,12.18
2023-02-18T03:11:58.863Z,12.20
2023-02-18T03:12:58.829Z,12.20
2023-02-18T03:13:58.815Z,12.28
2023-02-18T03:14:58.761Z,12.28
2023-02-18T03:15:58.721Z,12.21
2023-02-18T03:16:58.725Z,12.21
2023-02-18T03:17:58.657Z,12.31
2023-02-18T03:18:58.617Z,12.22
2023-02-18T03:19:58.583Z,12.28
2023-02-18T03:20:58.544Z,12.32
2023-02-18T03:21:58.509Z,12.24
2023-02-18T03:22:58.487Z,12.24
2023-02-18T03:23:58.448Z,12.31
2023-02-18T03:24:58.405Z,12.18
2023-02-18T03:25:58.366Z,12.24
2023-02-18T03:26:58.340Z,12.29
2023-02-18T03:27:58.303Z,12.27
2023-02-18T03:28:58.264Z,12.20
2023-02-18T03:29:58.258Z,12.21
2023-02-18T03:30:58.197Z,12.22
2023-02-18T03:31:58.285Z,12.18
2023-02-18T03:32:58.127Z,12.25
2023-02-18T03:33:58.138Z,12.20
2023-02-18T03:34:58.049Z,12.17
2023-02-18T03:35:58.017Z,12.22
2023-02-18T03:36:57.983Z,12.22
2023-02-18T03:37:57.956Z,12.10
2023-02-18T03:38:57.941Z,12.20
2023-02-18T03:39:57.868Z,12.21
2023-02-18T03:40:57.839Z,12.20
2023-02-18T03:41:57.812Z,12.28
2023-02-18T03:42:57.772Z,12.24
2023-02-18T03:43:57.753Z,12.12
2023-02-18T03:44:57.695Z,12.20
2023-02-18T03:45:57.667Z,12.15
2023-02-18T03:46:57.622Z,12.21
2023-02-18T03:47:57.590Z,12.17
2023-02-18T03:48:57.556Z,12.29
2023-02-18T03:49:57.519Z,12.18
2023-02-18T03:50:57.483Z,12.15
2023-02-18T03:51:57.455Z,12.12
2023-02-18T03:52:57.414Z,12.20
2023-02-18T03:53:57.374Z,12.18
2023-02-18T03:54:57.338Z,12.17
2023-02-18T03:55:57.311Z,12.17
2023-02-18T03:56:57.264Z,12.04
2023-02-18T03:57:57.222Z,12.12
2023-02-18T03:58:57.190Z,12.07
2023-02-18T03:59:57.172Z,12.12
2023-02-18T04:00:57.168Z,12.12
2023-02-18T04:01:57.106Z,12.12
2023-02-18T04:02:57.051Z,12.12
2023-02-18T04:03:57.083Z,12.10
2023-02-18T04:04:56.976Z,12.09
2023-02-18T04:05:56.946Z,12.07
2023-02-18T04:06:56.916Z,12.03
2023-02-18T04:07:56.870Z,12.07
2023-02-18T04:08:56.838Z,12.09
2023-02-18T04:09:56.794Z,12.10
2023-02-18T04:10:56.767Z,12.09
2023-02-18T04:11:56.721Z,12.00
2023-02-18T04:12:56.689Z,12.09
2023-02-18T04:13:56.704Z,12.04
2023-02-18T04:14:56.617Z,12.09
2023-02-18T04:15:56.587Z,12.03
2023-02-18T04:16:56.561Z,12.03
2023-02-18T04:17:56.514Z,12.04
2023-02-18T04:18:56.472Z,12.04
2023-02-18T04:19:56.442Z,12.07
2023-02-18T04:20:56.404Z,12.02
2023-02-18T04:21:56.443Z,12.04
2023-02-18T04:22:56.331Z,11.97
2023-02-18T04:23:56.313Z,11.90
2023-02-18T04:24:56.317Z,11.99
2023-02-18T04:25:56.234Z,12.04
2023-02-18T04:26:56.203Z,11.95
2023-02-18T04:27:56.155Z,11.99
2023-02-18T04:28:56.115Z,11.94
2023-02-18T04:29:56.080Z,12.03
2023-02-18T04:30:56.066Z,12.02
2023-02-18T04:31:56.027Z,12.07
2023-02-18T04:32:55.975Z,12.06
2023-02-18T04:33:55.936Z,12.03
2023-02-18T04:34:55.905Z,12.07
2023-02-18T04:35:55.867Z,12.03
2023-02-18T04:36:55.856Z,12.02
2023-02-18T04:37:55.797Z,11.90
2023-02-18T04:38:55.761Z,11.87
2023-02-18T04:39:55.730Z,11.86
2023-02-18T04:40:55.688Z,11.87
2023-02-18T04:41:55.656Z,11.83
2023-02-18T04:42:55.622Z,11.81
2023-02-18T04:43:55.654Z,11.80
2023-02-18T04:44:55.547Z,11.80
2023-02-18T04:45:55.552Z,11.75
2023-02-18T04:46:55.475Z,11.81
2023-02-18T04:47:55.435Z,11.75
2023-02-18T04:48:55.404Z,11.70
2023-02-18T04:49:55.367Z,11.68
2023-02-18T04:50:55.329Z,11.83
2023-02-18T04:51:55.302Z,11.80
2023-02-18T04:52:55.264Z,11.86
2023-02-18T04:53:55.230Z,11.86
2023-02-18T04:54:55.189Z,11.90
2023-02-18T04:55:55.148Z,11.84
2023-02-18T04:56:55.114Z,11.90
2023-02-18T04:57:55.080Z,11.94
2023-02-18T04:58:55.041Z,11.91
2023-02-18T04:59:55.011Z,11.99
2023-02-18T05:00:54.975Z,11.72
2023-02-18T05:01:54.946Z,11.84
2023-02-18T05:02:54.911Z,11.84
2023-02-18T05:03:54.885Z,11.84
2023-02-18T05:04:54.833Z,11.81
2023-02-18T05:05:54.825Z,11.88
2023-02-18T05:06:54.768Z,11.88
2023-02-18T05:07:54.726Z,11.86
2023-02-18T05:08:54.691Z,11.78
2023-02-18T05:09:54.657Z,11.83
2023-02-18T05:10:54.634Z,11.86
2023-02-18T05:11:54.585Z,11.90
2023-02-18T05:12:54.563Z,11.90
2023-02-18T05:13:54.512Z,11.94
2023-02-18T05:14:54.476Z,11.90
2023-02-18T05:15:54.532Z,11.86
2023-02-18T05:16:54.423Z,11.80
2023-02-18T05:17:54.367Z,11.78
2023-02-18T05:18:54.332Z,11.83
2023-02-18T05:19:54.300Z,11.80
2023-02-18T05:20:54.267Z,11.83
2023-02-18T05:21:54.236Z,11.83
2023-02-18T05:22:54.191Z,11.78
2023-02-18T05:23:54.156Z,11.77
2023-02-18T05:24:54.122Z,11.86
2023-02-18T05:25:54.101Z,11.78
2023-02-18T05:26:54.050Z,11.80
2023-02-18T05:27:54.015Z,11.80
2023-02-18T05:28:53.976Z,11.81
2023-02-18T05:29:53.941Z,11.84
2023-02-18T05:30:53.968Z,11.72
2023-02-18T05:31:53.993Z,11.68
2023-02-18T05:32:53.837Z,11.63
2023-02-18T05:33:53.796Z,11.80
2023-02-18T05:34:53.758Z,11.69
2023-02-18T05:35:53.724Z,11.73
2023-02-18T05:36:53.694Z,11.73
2023-02-18T05:37:53.653Z,11.66
2023-02-18T05:38:53.629Z,11.63
2023-02-18T05:39:53.581Z,11.66
2023-02-18T05:40:53.543Z,11.68
2023-02-18T05:41:53.510Z,11.68
2023-02-18T05:42:53.471Z,11.68
2023-02-18T05:43:53.431Z,11.77
2023-02-18T05:44:53.402Z,11.77
2023-02-18T05:45:53.376Z,11.66
2023-02-18T05:46:53.325Z,11.78
2023-02-18T05:47:53.297Z,11.77
2023-02-18T05:48:53.257Z,11.77
2023-02-18T05:49:53.218Z,11.81
2023-02-18T05:50:53.190Z,11.87
2023-02-18T05:51:53.163Z,11.84
2023-02-18T05:52:53.113Z,11.84
2023-02-18T05:53:53.083Z,11.86
2023-02-18T05:54:53.037Z,11.81
2023-02-18T05:55:53.006Z,11.91
2023-02-18T05:56:52.965Z,11.95
2023-02-18T05:57:52.937Z,11.88
2023-02-18T05:58:52.896Z,11.87
2023-02-18T05:59:52.863Z,11.90
2023-02-18T06:00:52.818Z,11.87
2023-02-18T06:01:52.784Z,11.84
2023-02-18T06:02:52.784Z,11.91
2023-02-18T06:03:52.718Z,11.88
2023-02-18T06:04:52.685Z,11.88
2023-02-18T06:05:52.791Z,11.87
2023-02-18T06:06:52.605Z,11.86
2023-02-18T06:07:53.463Z,11.81
2023-02-18T06:08:52.537Z,11.90
2023-02-18T06:09:52.498Z,11.95
2023-02-18T06:10:52.464Z,11.90
2023-02-18T06:11:52.433Z,11.91
2023-02-18T06:12:52.389Z,11.88
2023-02-18T06:13:52.361Z,11.86
2023-02-18T06:14:52.323Z,11.99
2023-02-18T06:15:52.344Z,11.99
2023-02-18T06:16:52.250Z,11.97
2023-02-18T06:17:52.218Z,11.97
2023-02-18T06:18:52.174Z,11.94
2023-02-18T06:19:52.154Z,11.99
2023-02-18T06:20:52.111Z,12.00
2023-02-18T06:21:52.074Z,11.99
2023-02-18T06:22:52.043Z,12.06
2023-02-18T06:23:51.998Z,12.03
2023-02-18T06:24:51.974Z,12.07
2023-02-18T06:25:51.934Z,12.09
2023-02-18T06:26:51.888Z,11.95
2023-02-18T06:27:51.852Z,12.02
2023-02-18T06:28:51.815Z,12.02
2023-02-18T06:29:51.780Z,11.97
2023-02-18T06:30:51.742Z,12.00
2023-02-18T06:31:51.753Z,12.00
2023-02-18T06:32:51.671Z,11.86
2023-02-18T06:33:51.640Z,12.00
2023-02-18T06:34:51.601Z,11.97
2023-02-18T06:35:51.563Z,12.00
2023-02-18T06:36:51.525Z,12.00
2023-02-18T06:37:51.492Z,11.91
2023-02-18T06:38:51.457Z,11.94
2023-02-18T06:39:51.417Z,11.94
2023-02-18T06:40:51.379Z,11.99
2023-02-18T06:41:51.348Z,11.94
2023-02-18T06:42:51.309Z,11.90
2023-02-18T06:43:51.276Z,11.94
2023-02-18T06:44:51.237Z,12.00
2023-02-18T06:45:51.202Z,12.02
2023-02-18T06:46:51.168Z,12.03
2023-02-18T06:47:51.161Z,11.99
2023-02-18T06:48:51.103Z,11.90
2023-02-18T06:49:51.061Z,11.99
2023-02-18T06:50:51.032Z,12.00
2023-02-18T06:51:50.987Z,12.03
2023-02-18T06:52:50.950Z,12.04
2023-02-18T06:53:50.913Z,12.02
2023-02-18T06:54:50.881Z,11.99
2023-02-18T06:55:50.846Z,11.97
2023-02-18T06:56:50.835Z,12.00
2023-02-18T06:57:50.770Z,11.99
2023-02-18T06:58:50.736Z,11.91
2023-02-18T06:59:50.703Z,11.94
2023-02-18T07:00:50.699Z,11.97
2023-02-18T07:01:50.630Z,11.99
2023-02-18T07:02:50.593Z,11.95
2023-02-18T07:03:50.621Z,12.02
2023-02-18T07:04:50.526Z,11.95
2023-02-18T07:05:50.489Z,12.02
2023-02-18T07:06:50.456Z,11.99
2023-02-18T07:07:50.421Z,11.99
2023-02-18T07:08:50.379Z,12.02
2023-02-18T07:09:50.338Z,11.97
2023-02-18T07:10:50.310Z,11.95
2023-02-18T07:11:50.265Z,11.86
2023-02-18T07:12:50.231Z,11.99
2023-02-18T07:13:50.204Z,11.99
2023-02-18T07:14:50.158Z,11.88
2023-02-18T07:15:50.136Z,11.97
2023-02-18T07:16:50.091Z,11.97
2023-02-18T07:17:50.059Z,11.84
2023-02-18T07:18:50.024Z,11.90
2023-02-18T07:19:50.025Z,11.84
2023-02-18T07:20:49.945Z,11.86
2023-02-18T07:21:49.917Z,11.97
2023-02-18T07:22:49.877Z,11.87
2023-02-18T07:23:49.838Z,11.90
2023-02-18T07:24:49.831Z,11.90
2023-02-18T07:25:49.770Z,11.90
2023-02-18T07:26:49.729Z,11.90
2023-02-18T07:27:49.701Z,12.03
2023-02-18T07:28:49.659Z,12.02
2023-02-18T07:29:49.625Z,12.02
2023-02-18T07:30:49.589Z,12.04
2023-02-18T07:31:49.764Z,12.00
2023-02-18T07:32:49.513Z,11.88
2023-02-18T07:33:49.484Z,11.94
2023-02-18T07:34:49.454Z,11.87
2023-02-18T07:35:49.408Z,11.84
2023-02-18T07:36:49.376Z,11.83
2023-02-18T07:37:49.338Z,11.94
2023-02-18T07:38:49.324Z,11.88
2023-02-18T07:39:49.264Z,11.86
2023-02-18T07:40:49.227Z,11.95
2023-02-18T07:41:49.197Z,11.87
2023-02-18T07:42:49.177Z,11.97
2023-02-18T07:43:49.125Z,11.87
2023-02-18T07:44:49.093Z,11.86
2023-02-18T07:45:49.152Z,11.73
2023-02-18T07:46:49.021Z,11.90
2023-02-18T07:47:48.985Z,11.80
2023-02-18T07:48:48.948Z,11.80
2023-02-18T07:49:48.909Z,11.80
2023-02-18T07:50:48.879Z,11.65
2023-02-18T07:51:48.834Z,11.77
2023-02-18T07:52:48.803Z,11.72
2023-02-18T07:53:48.781Z,11.86
2023-02-18T07:54:48.725Z,11.87
2023-02-18T07:55:48.703Z,11.84
2023-02-18T07:56:48.650Z,11.75
2023-02-18T07:57:48.619Z,11.81
2023-02-18T07:58:48.587Z,11.77
2023-02-18T07:59:48.546Z,11.84
2023-02-18T08:00:48.506Z,11.78
2023-02-18T08:01:48.522Z,11.70
2023-02-18T08:02:48.445Z,11.80
2023-02-18T08:03:48.421Z,11.81
2023-02-18T08:04:48.380Z,11.81
2023-02-18T08:05:48.347Z,11.84
2023-02-18T08:06:48.300Z,11.86
2023-02-18T08:07:48.266Z,11.87
2023-02-18T08:08:48.223Z,11.99
2023-02-18T08:09:48.187Z,11.87
2023-02-18T08:10:48.152Z,11.78
2023-02-18T08:11:48.125Z,11.78
2023-02-18T08:12:48.086Z,11.66
2023-02-18T08:13:48.054Z,11.69
2023-02-18T08:14:48.012Z,11.68
2023-02-18T08:15:47.977Z,11.77
2023-02-18T08:16:47.975Z,11.68
2023-02-18T08:17:47.905Z,11.68
2023-02-18T08:18:47.897Z,11.78
2023-02-18T08:19:47.832Z,11.81
2023-02-18T08:20:47.815Z,11.72
2023-02-18T08:21:47.767Z,11.80
2023-02-18T08:22:47.724Z,11.77
2023-02-18T08:23:47.692Z,11.87
2023-02-18T08:24:47.686Z,11.80
2023-02-18T08:25:49.999Z,11.77
2023-02-18T08:26:59.733Z,11.83
2023-02-18T08:27:47.550Z,11.75
2023-02-18T08:28:47.506Z,11.69
2023-02-18T08:29:47.481Z,11.86
2023-02-18T08:30:47.492Z,11.83
2023-02-18T08:31:47.504Z,11.78
2023-02-18T08:32:47.366Z,11.66
2023-02-18T08:33:47.356Z,11.68
2023-02-18T08:34:47.301Z,11.70
2023-02-18T08:35:47.337Z,11.65
2023-02-18T08:36:47.226Z,11.77
2023-02-18T08:37:53.701Z,11.68
2023-02-18T08:38:47.157Z,11.69
2023-02-18T08:39:47.122Z,11.75
2023-02-18T08:40:47.083Z,11.77
2023-02-18T08:41:47.060Z,11.77
2023-02-18T08:42:47.009Z,11.72
2023-02-18T08:43:46.982Z,11.69
2023-02-18T08:44:46.938Z,11.69
2023-02-18T08:45:46.978Z,11.68
2023-02-18T08:46:46.938Z,11.62
2023-02-18T08:48:18.416Z,11.70
2023-02-18T08:48:46.793Z,11.62
2023-02-18T08:49:46.773Z,11.65
2023-02-18T08:50:46.760Z,11.63
2023-02-18T08:51:46.715Z,11.69
2023-02-18T08:52:46.647Z,11.72
2023-02-18T08:53:46.642Z,11.70
2023-02-18T08:54:46.585Z,11.68
2023-02-18T08:55:46.547Z,11.70
2023-02-18T08:56:46.509Z,11.65
2023-02-18T08:57:46.481Z,11.69
2023-02-18T08:58:46.442Z,11.68
2023-02-18T08:59:46.399Z,11.63
2023-02-18T09:00:46.372Z,11.66
2023-02-18T09:01:46.353Z,11.66
2023-02-18T09:02:46.286Z,11.65
2023-02-18T09:03:46.258Z,11.68
2023-02-18T09:04:46.282Z,11.70
2023-02-18T09:05:46.185Z,11.63
2023-02-18T09:06:46.151Z,11.68
2023-02-18T09:07:46.155Z,11.65
2023-02-18T09:08:46.076Z,11.77
2023-02-18T09:09:46.041Z,11.69
2023-02-18T09:10:46.340Z,11.69
2023-02-18T09:11:45.967Z,11.80
2023-02-18T09:12:45.930Z,11.68
2023-02-18T09:13:45.898Z,11.75
2023-02-18T09:14:45.870Z,11.75
2023-02-18T09:15:45.844Z,11.90
2023-02-18T09:16:45.788Z,11.84
2023-02-18T09:17:45.763Z,11.88
2023-02-18T09:18:45.717Z,11.99
2023-02-18T09:19:45.677Z,12.00
2023-02-18T09:20:45.641Z,12.02
2023-02-18T09:21:45.606Z,11.95
2023-02-18T09:22:45.580Z,11.90
2023-02-18T09:23:45.537Z,11.94
2023-02-18T09:24:45.498Z,11.94
2023-02-18T09:25:45.464Z,11.99
2023-02-18T09:26:45.424Z,12.00
2023-02-18T09:27:45.389Z,11.86
2023-02-18T09:28:45.357Z,11.83
2023-02-18T09:29:45.367Z,11.97
2023-02-18T09:30:45.289Z,12.06
2023-02-18T09:31:45.341Z,11.97
2023-02-18T09:32:45.230Z,11.99
2023-02-18T09:33:45.992Z,11.90
2023-02-18T09:34:45.138Z,11.97
2023-02-18T09:35:45.109Z,11.97
2023-02-18T09:36:45.068Z,11.88
2023-02-18T09:37:45.048Z,11.88
2023-02-18T09:38:44.997Z,11.90
2023-02-18T09:39:44.958Z,11.91
2023-02-18T09:40:44.924Z,12.06
2023-02-18T09:41:44.893Z,11.94
2023-02-18T09:42:44.848Z,11.99
2023-02-18T09:43:44.815Z,12.00
2023-02-18T09:44:44.787Z,12.02
2023-02-18T09:45:44.743Z,12.02
2023-02-18T09:46:44.706Z,11.95
2023-02-18T09:47:44.677Z,12.10
2023-02-18T09:48:44.669Z,12.12
2023-02-18T09:49:44.599Z,12.22
2023-02-18T09:50:44.564Z,12.17
2023-02-18T09:51:44.523Z,12.12
2023-02-18T09:52:44.493Z,12.15
2023-02-18T09:53:44.454Z,12.04
2023-02-18T09:54:44.424Z,12.17
2023-02-18T09:55:44.396Z,12.18
2023-02-18T09:56:44.345Z,12.22
2023-02-18T09:57:44.711Z,12.21
2023-02-18T09:58:44.303Z,12.20
2023-02-18T09:59:44.242Z,12.02
2023-02-18T10:00:44.208Z,12.04
2023-02-18T10:01:44.206Z,12.03
2023-02-18T10:02:44.134Z,12.07
2023-02-18T10:03:44.109Z,12.10
2023-02-18T10:04:44.081Z,12.09
2023-02-18T10:05:44.038Z,11.94
2023-02-18T10:06:43.997Z,12.03
2023-02-18T10:07:43.959Z,12.00
2023-02-18T10:08:43.932Z,12.00
2023-02-18T10:09:43.898Z,12.02
2023-02-18T10:10:43.856Z,11.87
2023-02-18T10:11:43.812Z,11.97
2023-02-18T10:12:43.784Z,11.97
2023-02-18T10:13:43.762Z,12.02
2023-02-18T10:14:43.704Z,11.88
2023-02-18T10:15:43.723Z,12.04
2023-02-18T10:16:43.685Z,12.00
2023-02-18T10:17:43.612Z,12.07
2023-02-18T10:18:43.606Z,11.94
2023-02-18T10:19:43.556Z,12.09
2023-02-18T10:20:43.496Z,12.10
2023-02-18T10:21:43.461Z,11.99
2023-02-18T10:22:43.421Z,11.95
2023-02-18T10:23:43.385Z,11.94
2023-02-18T10:24:43.354Z,12.06
2023-02-18T10:25:43.320Z,11.97
2023-02-18T10:26:43.280Z,11.90
2023-02-18T10:27:43.258Z,12.06
2023-02-18T10:28:43.226Z,12.10
2023-02-18T10:29:43.267Z,11.99
2023-02-18T10:30:43.140Z,12.06
2023-02-18T10:31:43.160Z,12.00
2023-02-18T10:32:43.116Z,11.97
2023-02-18T10:33:43.027Z,11.97
2023-02-18T10:34:43.020Z,12.06
2023-02-18T10:35:42.956Z,11.97
2023-02-18T10:36:42.923Z,11.99
2023-02-18T10:37:42.891Z,12.10
2023-02-18T10:38:42.854Z,12.02
2023-02-18T10:39:42.815Z,12.07
2023-02-18T10:40:42.785Z,12.10
2023-02-18T10:41:42.753Z,12.10
2023-02-18T10:42:42.716Z,11.97
2023-02-18T10:43:42.673Z,12.02
2023-02-18T10:44:42.644Z,12.10
2023-02-18T10:45:42.609Z,12.07
2023-02-18T10:46:42.634Z,11.99
2023-02-18T10:47:42.533Z,12.09
2023-02-18T10:48:42.499Z,12.06
2023-02-18T10:49:42.458Z,12.00
2023-02-18T10:50:42.446Z,12.07
2023-02-18T10:51:42.380Z,12.10
2023-02-18T10:52:42.356Z,12.06
2023-02-18T10:53:42.325Z,12.07
2023-02-18T10:54:42.283Z,11.97
2023-02-18T10:55:42.243Z,12.03
2023-02-18T10:56:42.212Z,11.99
2023-02-18T10:57:42.222Z,11.97
2023-02-18T10:58:42.139Z,11.83
2023-02-18T10:59:42.094Z,12.00
2023-02-18T11:00:42.063Z,11.95
2023-02-18T11:01:42.148Z,11.78
2023-02-18T11:02:42.019Z,11.69
2023-02-18T11:03:41.962Z,11.83
2023-02-18T11:04:41.954Z,11.62
2023-02-18T11:05:41.891Z,11.77
2023-02-18T11:06:41.844Z,11.62
2023-02-18T11:07:41.807Z,11.48
2023-02-18T11:08:41.772Z,11.45
2023-02-18T11:09:41.737Z,11.57
2023-02-18T11:10:41.708Z,11.54
2023-02-18T11:11:41.804Z,11.45
2023-02-18T11:12:41.626Z,11.41
2023-02-18T11:13:41.598Z,11.45
2023-02-18T11:14:41.563Z,11.43
2023-02-18T11:15:41.520Z,11.60
2023-02-18T11:16:41.486Z,11.41
2023-02-18T11:17:41.449Z,11.41
2023-02-18T11:18:41.412Z,11.45
2023-02-18T11:19:41.371Z,11.41
2023-02-18T11:20:41.368Z,11.41
2023-02-18T11:21:41.299Z,11.44
2023-02-18T11:22:41.282Z,11.47
2023-02-18T11:23:41.228Z,11.43
2023-02-18T11:24:41.192Z,11.45
2023-02-18T11:25:41.154Z,11.43
2023-02-18T11:26:41.119Z,11.33
2023-02-18T11:27:41.101Z,11.44
2023-02-18T11:28:41.047Z,11.44
2023-02-18T11:29:41.012Z,11.27
2023-02-18T11:30:41.012Z,11.36
2023-02-18T11:31:41.044Z,11.44
2023-02-18T11:32:40.900Z,11.43
2023-02-18T11:33:40.894Z,11.27
2023-02-18T11:34:40.836Z,11.37
2023-02-18T11:35:40.808Z,11.37
2023-02-18T11:36:40.757Z,11.32
2023-02-18T11:37:40.727Z,11.32
2023-02-18T11:38:40.691Z,11.43
2023-02-18T11:39:40.654Z,11.37
2023-02-18T11:40:40.619Z,11.32
2023-02-18T11:41:40.623Z,11.37
2023-02-18T11:42:40.544Z,11.27
2023-02-18T11:43:40.507Z,11.30
2023-02-18T11:44:40.484Z,11.26
2023-02-18T11:45:40.460Z,11.26
2023-02-18T11:46:40.516Z,11.33
2023-02-18T11:47:40.381Z,11.35
2023-02-18T11:48:40.335Z,11.35
2023-02-18T11:49:40.312Z,11.19
2023-02-18T11:50:40.256Z,11.22
2023-02-18T11:51:40.217Z,11.19
2023-02-18T11:52:40.204Z,11.22
2023-02-18T11:53:40.145Z,11.18
2023-02-18T11:54:40.113Z,11.17
2023-02-18T11:55:40.085Z,11.32
2023-02-18T11:56:40.036Z,11.22
2023-02-18T11:57:40.012Z,11.12
2023-02-18T11:58:39.984Z,11.15
2023-02-18T11:59:40.054Z,11.23
2023-02-18T12:00:40.065Z,11.18
2023-02-18T12:01:40.218Z,11.35
2023-02-18T12:02:39.840Z,11.29
2023-02-18T12:03:39.793Z,11.36
2023-02-18T12:04:39.755Z,11.26
2023-02-18T12:05:39.720Z,11.33
2023-02-18T12:06:39.681Z,11.32
2023-02-18T12:07:39.646Z,11.30
2023-02-18T12:08:39.606Z,11.33
2023-02-18T12:09:39.580Z,11.26
2023-02-18T12:10:39.538Z,11.33
2023-02-18T12:11:39.503Z,11.32
2023-02-18T12:12:39.465Z,11.26
2023-02-18T12:13:39.430Z,11.41
2023-02-18T12:14:39.389Z,11.41
2023-02-18T12:15:39.354Z,11.23
2023-02-18T12:16:39.382Z,11.30
2023-02-18T12:17:39.294Z,11.30
2023-02-18T12:18:41.164Z,11.45
2023-02-18T12:19:39.225Z,11.37
2023-02-18T12:20:39.175Z,11.35
2023-02-18T12:21:39.143Z,11.32
2023-02-18T12:22:39.102Z,11.26
2023-02-18T12:23:39.070Z,11.35
2023-02-18T12:24:39.042Z,11.43
2023-02-18T12:25:38.998Z,11.43
2023-02-18T12:26:38.958Z,11.43
2023-02-18T12:27:38.917Z,11.45
2023-02-18T12:28:38.895Z,11.55
2023-02-18T12:29:38.855Z,11.51
2023-02-18T12:30:38.815Z,11.65
2023-02-18T12:31:38.858Z,11.55
2023-02-18T12:32:38.744Z,11.44
2023-02-18T12:33:38.707Z,11.55
2023-02-18T12:34:38.681Z,11.52
2023-02-18T12:35:38.629Z,11.62
2023-02-18T12:36:38.597Z,11.65
2023-02-18T12:37:38.580Z,11.59
2023-02-18T12:38:38.563Z,11.63
2023-02-18T12:39:38.497Z,11.65
2023-02-18T12:40:38.456Z,11.73
2023-02-18T12:41:38.415Z,11.69
2023-02-18T12:42:38.384Z,11.68
2023-02-18T12:43:38.348Z,11.57
2023-02-18T12:44:38.310Z,11.69
2023-02-18T12:45:38.295Z,11.60
2023-02-18T12:46:38.233Z,11.65
2023-02-18T12:47:38.213Z,11.65
2023-02-18T12:48:38.183Z,11.69
2023-02-18T12:49:38.130Z,11.57
2023-02-18T12:50:38.092Z,11.59
2023-02-18T12:51:38.067Z,11.52